Time;durP1;ratioP1;P1;durP2;ratioP2;P2;SDS_P1;SDS_P2;PMS_P1;PMS_P2;Temp;Humidity;BMP_temperature;BMP_pressure;BME280_temperature;BME280_humidity;BME280_pressure;Samples;Min_cycle;Max_cycle;Signal;HPM_P1;HPM_P2
2021/12/01 00:01:41;;;;;;;170.97;157.90;;;9.90;99.90;;;;;;5100031;28;20515;-85
2021/12/01 00:04:08;;;;;;;208.60;193.80;;;9.90;99.90;;;;;;5099556;28;20634;-85
2021/12/01 00:06:35;;;;;;;216.52;201.40;;;9.90;99.90;;;;;;5099459;28;20186;-85
2021/12/01 00:09:03;;;;;;;187.50;173.98;;;9.90;99.90;;;;;;5099659;28;20250;-85
2021/12/01 00:11:29;;;;;;;213.30;198.98;;;9.90;99.90;;;;;;5099379;28;20198;-85
2021/12/01 00:13:54;;;;;;;150.50;138.13;;;9.90;99.90;;;;;;5099588;28;20163;-85
2021/12/01 00:16:20;;;;;;;202.40;188.30;;;10.00;99.90;;;;;;5100195;28;20205;-85
2021/12/01 00:18:46;;;;;;;215.30;199.93;;;10.00;99.90;;;;;;5099572;28;20163;-85
2021/12/01 00:21:12;;;;;;;219.20;204.00;;;9.90;99.90;;;;;;5099661;28;20401;-85
2021/12/01 00:23:38;;;;;;;163.23;150.47;;;9.90;99.90;;;;;;5100273;28;20492;-85
2021/12/01 00:26:07;;;;;;;187.30;173.10;;;10.00;99.90;;;;;;5099180;28;20170;-85
2021/12/01 00:28:33;;;;;;;188.43;174.57;;;10.00;99.90;;;;;;5097002;28;20669;-86
2021/12/01 00:31:00;;;;;;;154.40;141.80;;;10.00;99.90;;;;;;5098104;28;20210;-85
2021/12/01 00:33:26;;;;;;;108.80;97.93;;;10.00;99.90;;;;;;5097994;28;20232;-85
2021/12/01 00:35:53;;;;;;;108.90;98.03;;;10.00;99.90;;;;;;5099294;28;20163;-85
2021/12/01 00:38:21;;;;;;;155.98;143.40;;;10.00;99.90;;;;;;5099934;28;20523;-85
2021/12/01 00:40:49;;;;;;;122.10;110.80;;;10.00;99.90;;;;;;5099126;28;20214;-85
2021/12/01 00:43:19;;;;;;;104.32;93.32;;;10.00;99.90;;;;;;5102610;28;20591;-85
2021/12/01 00:45:55;;;;;;;92.97;80.65;;;9.90;99.90;;;;;;5101971;28;20175;-85
2021/12/01 00:48:21;;;;;;;120.90;109.55;;;10.00;99.90;;;;;;5102108;28;20155;-85
2021/12/01 00:50:48;;;;;;;116.85;105.00;;;9.90;99.90;;;;;;5102866;28;20194;-85
2021/12/01 00:53:14;;;;;;;103.28;92.50;;;9.90;99.90;;;;;;5103288;28;20638;-85
2021/12/01 00:55:42;;;;;;;129.23;117.57;;;9.90;99.90;;;;;;5102522;28;20668;-85
2021/12/01 00:58:09;;;;;;;117.05;105.70;;;10.00;99.90;;;;;;5102922;28;20197;-85
2021/12/01 01:00:40;;;;;;;91.20;73.60;;;10.00;99.90;;;;;;5103209;28;20254;-85
2021/12/01 01:03:06;;;;;;;93.38;81.47;;;9.90;99.90;;;;;;5103188;28;20175;-85
2021/12/01 01:05:31;;;;;;;116.57;104.77;;;10.00;99.90;;;;;;5102477;28;20171;-85
2021/12/01 01:07:57;;;;;;;131.60;119.67;;;10.00;99.90;;;;;;5102948;28;20911;-85
2021/12/01 01:10:45;;;;;;;112.13;100.97;;;10.00;99.90;;;;;;5102656;28;20187;-85
2021/12/01 01:19:01;;;;;;;116.30;105.05;;;9.80;99.90;;;;;;5079711;28;20187;-85
2021/12/01 01:21:33;;;;;;;120.15;108.70;;;9.80;99.90;;;;;;5102754;28;20191;-85
2021/12/01 01:24:00;;;;;;;100.63;89.88;;;9.70;99.90;;;;;;5103747;28;20234;-85
2021/12/01 01:26:27;;;;;;;107.07;96.18;;;9.70;99.90;;;;;;5102213;28;20159;-85
2021/12/01 01:28:53;;;;;;;114.10;102.40;;;9.80;99.90;;;;;;5102243;28;20160;-85
2021/12/01 01:31:20;;;;;;;146.98;134.55;;;9.70;99.90;;;;;;5102595;28;20192;-85
2021/12/01 01:33:46;;;;;;;134.05;122.18;;;9.80;99.90;;;;;;5102927;28;20170;-85
2021/12/01 01:36:12;;;;;;;135.75;123.85;;;9.70;99.90;;;;;;5102668;28;20195;-85
2021/12/01 01:38:38;;;;;;;125.60;113.50;;;9.70;99.90;;;;;;5102009;28;20212;-85
2021/12/01 01:41:08;;;;;;;139.03;127.00;;;9.60;99.90;;;;;;5101679;28;20543;-85
2021/12/01 01:43:35;;;;;;;141.98;129.82;;;9.60;99.90;;;;;;5101241;28;20419;-85
2021/12/01 01:46:01;;;;;;;162.88;150.02;;;9.60;99.90;;;;;;5102082;28;20167;-85
2021/12/01 01:48:31;;;;;;;127.30;115.75;;;9.50;99.90;;;;;;5100916;28;20178;-85
2021/12/01 01:51:01;;;;;;;140.82;128.23;;;9.60;99.90;;;;;;5102375;28;20195;-85
2021/12/01 01:53:28;;;;;;;127.40;115.88;;;9.50;99.90;;;;;;5101305;28;20169;-85
2021/12/01 01:55:59;;;;;;;116.70;105.47;;;9.50;99.90;;;;;;5100258;28;20190;-85
2021/12/01 01:58:34;;;;;;;142.20;129.45;;;9.50;99.90;;;;;;5159744;22;20214;-84
2021/12/01 02:01:06;;;;;;;164.38;151.52;;;9.60;99.90;;;;;;5078023;28;20538;-83
2021/12/01 02:03:37;;;;;;;167.80;154.23;;;9.60;99.90;;;;;;5076422;28;20564;-83
2021/12/01 02:06:05;;;;;;;171.05;157.68;;;9.50;99.90;;;;;;5076277;28;20156;-84
2021/12/01 02:08:32;;;;;;;134.32;122.35;;;9.50;99.90;;;;;;5077043;28;20559;-84
2021/12/01 02:11:00;;;;;;;128.68;117.03;;;9.50;99.90;;;;;;5077685;28;20199;-84
2021/12/01 02:13:29;;;;;;;131.80;120.05;;;9.50;99.90;;;;;;5078095;28;20195;-84
2021/12/01 02:15:57;;;;;;;110.15;99.10;;;9.50;99.90;;;;;;5077795;28;20160;-83
2021/12/01 02:18:23;;;;;;;121.63;110.05;;;9.50;99.90;;;;;;5077690;28;20167;-84
2021/12/01 02:21:08;;;;;;;155.00;142.43;;;9.50;99.90;;;;;;5076574;28;20191;-83
2021/12/01 02:23:36;;;;;;;166.77;152.98;;;9.40;99.90;;;;;;5077429;28;20986;-84
2021/12/01 02:26:04;;;;;;;153.75;141.23;;;9.40;99.90;;;;;;5077826;28;20172;-83
2021/12/01 02:28:30;;;;;;;114.63;102.80;;;9.40;99.90;;;;;;5077855;28;20190;-83
2021/12/01 02:30:58;;;;;;;110.07;98.97;;;9.40;99.90;;;;;;5077256;28;20192;-84
2021/12/01 02:33:24;;;;;;;142.65;130.05;;;9.30;99.90;;;;;;5077477;28;20175;-84
2021/12/01 02:35:49;;;;;;;145.23;132.97;;;9.40;99.90;;;;;;5076172;28;20163;-84
2021/12/01 02:38:17;;;;;;;114.40;103.13;;;9.30;99.90;;;;;;5077415;28;20485;-83
2021/12/01 02:40:43;;;;;;;108.38;97.47;;;9.30;99.90;;;;;;5077188;28;20682;-84
2021/12/01 02:43:09;;;;;;;143.52;131.38;;;9.30;99.90;;;;;;5076022;28;20296;-84
2021/12/01 02:45:35;;;;;;;132.63;120.67;;;9.30;99.90;;;;;;5075485;28;20689;-83
2021/12/01 02:48:02;;;;;;;137.60;125.65;;;9.20;99.90;;;;;;5076313;28;20406;-83
2021/12/01 02:50:28;;;;;;;137.98;126.05;;;9.20;99.90;;;;;;5075096;28;20199;-83
2021/12/01 02:52:53;;;;;;;166.27;152.70;;;9.20;99.90;;;;;;5076873;28;20164;-83
2021/12/01 02:55:20;;;;;;;115.77;104.27;;;9.20;99.90;;;;;;5076285;28;20519;-83
2021/12/01 02:57:50;;;;;;;128.85;117.10;;;9.20;99.90;;;;;;5076790;28;20413;-84
2021/12/01 03:00:18;;;;;;;113.22;101.97;;;9.20;99.90;;;;;;5076479;28;20211;-83
2021/12/01 03:02:45;;;;;;;184.77;170.75;;;9.20;99.90;;;;;;5074832;28;20543;-83
2021/12/01 03:05:11;;;;;;;164.30;151.45;;;9.30;99.90;;;;;;5074804;28;20258;-83
2021/12/01 03:07:38;;;;;;;180.85;167.32;;;9.30;99.90;;;;;;5075369;28;20646;-83
2021/12/01 03:10:05;;;;;;;210.63;196.10;;;9.20;99.90;;;;;;5076375;28;20614;-83
2021/12/01 03:12:34;;;;;;;181.07;167.27;;;9.20;99.90;;;;;;5076594;28;20160;-83
2021/12/01 03:15:00;;;;;;;196.43;182.45;;;9.20;99.90;;;;;;5076326;28;20168;-84
2021/12/01 03:17:27;;;;;;;177.90;164.63;;;9.10;99.90;;;;;;5076239;28;20167;-83
2021/12/01 03:19:54;;;;;;;207.10;192.70;;;9.10;99.90;;;;;;5075278;28;20195;-83
2021/12/01 03:22:20;;;;;;;213.00;198.43;;;9.10;99.90;;;;;;5075156;28;20580;-84
2021/12/01 03:24:46;;;;;;;202.93;188.50;;;9.10;99.90;;;;;;5075157;28;20168;-84
2021/12/01 03:27:11;;;;;;;191.70;177.10;;;9.10;99.90;;;;;;5076669;28;20635;-83
2021/12/01 03:29:37;;;;;;;184.10;170.27;;;9.10;99.90;;;;;;5074836;28;20436;-84
2021/12/01 03:32:03;;;;;;;116.33;104.57;;;9.10;99.90;;;;;;5076970;28;20213;-83
2021/12/01 03:34:29;;;;;;;159.38;146.23;;;9.10;99.90;;;;;;5076620;28;20443;-83
2021/12/01 03:36:56;;;;;;;212.57;197.63;;;9.10;99.90;;;;;;5076316;28;20159;-83
2021/12/01 03:39:24;;;;;;;139.27;127.25;;;9.00;99.90;;;;;;5075834;28;20180;-83
2021/12/01 03:41:50;;;;;;;172.40;159.13;;;8.90;99.90;;;;;;5075801;28;20156;-83
2021/12/01 03:44:16;;;;;;;175.40;161.33;;;8.90;99.90;;;;;;5076391;28;20167;-83
2021/12/01 03:46:41;;;;;;;144.53;131.57;;;9.00;99.90;;;;;;5076637;28;20208;-83
2021/12/01 03:49:07;;;;;;;220.10;205.17;;;9.00;99.90;;;;;;5074763;28;20418;-83
2021/12/01 03:51:33;;;;;;;168.53;155.20;;;9.00;99.90;;;;;;5076411;28;20187;-84
2021/12/01 03:53:59;;;;;;;120.53;108.33;;;9.00;99.90;;;;;;5075061;28;20164;-83
2021/12/01 03:56:24;;;;;;;177.47;163.63;;;9.10;99.90;;;;;;5076161;28;20406;-83
2021/12/01 03:58:50;;;;;;;123.13;111.20;;;9.00;99.90;;;;;;5075803;28;20179;-83
2021/12/01 04:01:16;;;;;;;104.40;93.20;;;9.00;99.90;;;;;;5075984;28;20213;-83
2021/12/01 04:03:41;;;;;;;84.57;47.43;;;9.10;99.90;;;;;;5074690;28;20168;-83
2021/12/01 04:06:07;;;;;;;98.63;78.90;;;9.10;99.90;;;;;;5074452;28;20218;-83
2021/12/01 04:08:34;;;;;;;140.63;127.55;;;9.10;99.90;;;;;;5074529;28;20175;-84
2021/12/01 04:11:00;;;;;;;130.68;118.57;;;9.10;99.90;;;;;;5075745;28;20195;-83
2021/12/01 04:13:25;;;;;;;144.13;131.10;;;9.00;99.90;;;;;;5075544;28;20156;-83
2021/12/01 04:15:51;;;;;;;204.27;183.93;;;9.00;99.90;;;;;;5075874;28;20399;-83
2021/12/01 04:18:17;;;;;;;205.33;190.93;;;9.00;99.90;;;;;;5079399;28;20238;-83
2021/12/01 04:20:42;;;;;;;213.50;198.83;;;8.90;99.90;;;;;;5079670;28;20740;-83
2021/12/01 04:23:08;;;;;;;171.87;158.20;;;8.90;99.90;;;;;;5078837;28;20178;-83
2021/12/01 04:25:34;;;;;;;181.27;167.50;;;8.90;99.90;;;;;;5079122;28;20171;-83
2021/12/01 04:28:00;;;;;;;196.80;182.20;;;9.00;99.90;;;;;;5077933;28;20164;-83
2021/12/01 04:30:27;;;;;;;216.57;201.47;;;9.00;99.90;;;;;;5078670;28;20456;-83
2021/12/01 04:32:53;;;;;;;229.50;213.60;;;9.00;99.90;;;;;;5077886;28;20417;-83
2021/12/01 04:35:23;;;;;;;160.00;146.65;;;9.00;99.90;;;;;;5079151;28;20156;-83
2021/12/01 04:37:49;;;;;;;137.13;124.72;;;9.00;99.90;;;;;;5078297;28;20163;-83
2021/12/01 04:40:16;;;;;;;190.07;175.98;;;9.00;99.90;;;;;;5078412;28;20187;-83
2021/12/01 04:42:43;;;;;;;179.45;165.77;;;8.90;99.90;;;;;;5078761;28;20194;-83
2021/12/01 04:45:17;;;;;;;186.18;172.38;;;8.90;99.90;;;;;;5079352;28;20160;-83
2021/12/01 04:47:46;;;;;;;225.23;209.52;;;8.90;99.90;;;;;;5078132;28;20242;-82
2021/12/01 04:50:12;;;;;;;169.63;156.30;;;8.90;99.90;;;;;;5079300;28;20187;-83
2021/12/01 04:52:39;;;;;;;203.48;188.63;;;8.80;99.90;;;;;;5078741;28;20246;-83
2021/12/01 04:55:06;;;;;;;159.57;146.77;;;8.80;99.90;;;;;;5077470;28;20164;-83
2021/12/01 04:57:32;;;;;;;160.75;147.80;;;8.80;99.90;;;;;;5078944;28;20263;-83
2021/12/01 04:59:57;;;;;;;136.43;124.33;;;8.70;99.90;;;;;;5077423;28;20215;-83
2021/12/01 05:02:23;;;;;;;190.77;176.37;;;8.70;99.90;;;;;;5078085;28;20429;-83
2021/12/01 05:04:50;;;;;;;133.10;121.17;;;8.70;99.90;;;;;;5078675;28;20172;-83
2021/12/01 05:07:17;;;;;;;144.15;131.80;;;8.70;99.90;;;;;;5077220;28;20242;-83
2021/12/01 05:09:42;;;;;;;200.00;185.30;;;8.60;99.90;;;;;;5078497;28;20666;-84
2021/12/01 05:12:09;;;;;;;155.93;143.17;;;8.60;99.90;;;;;;5079382;28;20164;-83
2021/12/01 05:14:35;;;;;;;150.25;137.40;;;8.60;99.90;;;;;;5078758;28;20398;-84
2021/12/01 05:17:02;;;;;;;141.85;129.70;;;8.60;99.90;;;;;;5078631;28;20163;-83
2021/12/01 05:19:27;;;;;;;138.55;126.50;;;8.70;99.90;;;;;;5078743;28;20187;-83
2021/12/01 05:21:53;;;;;;;132.00;119.87;;;8.60;99.90;;;;;;5079166;28;20164;-83
2021/12/01 05:24:19;;;;;;;170.57;156.93;;;8.60;99.90;;;;;;5077737;28;20167;-83
2021/12/01 05:26:44;;;;;;;146.33;133.40;;;8.60;99.90;;;;;;5078519;28;20191;-83
2021/12/01 05:29:10;;;;;;;133.40;121.07;;;8.60;99.90;;;;;;5078019;28;20655;-83
2021/12/01 05:31:36;;;;;;;148.55;135.68;;;8.60;99.90;;;;;;5076972;28;20191;-83
2021/12/01 05:34:02;;;;;;;133.90;122.00;;;8.60;99.90;;;;;;5077944;28;20202;-83
2021/12/01 05:36:30;;;;;;;123.33;111.70;;;8.60;99.90;;;;;;5077488;28;20178;-83
2021/12/01 05:38:57;;;;;;;124.30;112.72;;;8.60;99.90;;;;;;5077960;28;20478;-83
2021/12/01 05:41:23;;;;;;;133.73;121.97;;;8.60;99.90;;;;;;5077916;28;20167;-83
2021/12/01 05:43:49;;;;;;;148.10;135.90;;;8.60;99.90;;;;;;5076514;28;20172;-83
2021/12/01 05:46:15;;;;;;;159.90;146.67;;;8.60;99.90;;;;;;5078911;28;20527;-83
2021/12/01 05:48:40;;;;;;;124.33;112.80;;;8.70;99.90;;;;;;5078789;28;20413;-83
2021/12/01 05:51:07;;;;;;;154.50;142.00;;;8.60;99.90;;;;;;5077133;28;20195;-84
2021/12/01 05:53:33;;;;;;;158.50;145.60;;;8.70;99.90;;;;;;5077125;28;20190;-83
2021/12/01 05:55:59;;;;;;;138.85;126.95;;;8.60;99.90;;;;;;5079429;28;20160;-84
2021/12/01 05:58:25;;;;;;;171.63;157.60;;;8.70;99.90;;;;;;5078529;28;20175;-84
2021/12/01 06:00:50;;;;;;;170.37;156.97;;;8.60;99.90;;;;;;5078601;28;20211;-84
2021/12/01 06:03:16;;;;;;;354.17;331.23;;;8.50;99.90;;;;;;5078497;28;20418;-83
2021/12/01 06:05:45;;;;;;;301.17;283.47;;;8.50;99.90;;;;;;5078230;28;20215;-84
2021/12/01 06:08:11;;;;;;;312.58;294.23;;;8.50;99.90;;;;;;5076487;28;20945;-83
2021/12/01 06:10:39;;;;;;;278.13;261.17;;;8.50;99.90;;;;;;5076654;28;20196;-83
2021/12/01 06:13:05;;;;;;;266.83;250.55;;;8.50;99.90;;;;;;5076808;28;20414;-84
2021/12/01 06:15:31;;;;;;;241.57;226.30;;;8.50;99.90;;;;;;5077735;28;20171;-84
2021/12/01 06:17:58;;;;;;;242.13;226.68;;;8.50;99.90;;;;;;5079029;28;20405;-83
2021/12/01 06:20:24;;;;;;;272.70;255.57;;;8.60;99.90;;;;;;5078368;28;20247;-83
2021/12/01 06:22:52;;;;;;;245.93;230.18;;;8.60;99.90;;;;;;5076863;28;20258;-83
2021/12/01 06:25:19;;;;;;;197.82;183.48;;;8.60;99.90;;;;;;5077423;28;20576;-83
2021/12/01 06:27:47;;;;;;;275.60;258.63;;;8.60;99.90;;;;;;5077786;28;20512;-83
2021/12/01 06:30:13;;;;;;;241.02;225.18;;;8.70;99.90;;;;;;5078135;28;20187;-83
2021/12/01 06:32:39;;;;;;;201.95;187.23;;;8.70;99.90;;;;;;5076949;28;20160;-83
2021/12/01 06:35:08;;;;;;;174.27;160.97;;;8.70;99.90;;;;;;5078243;28;20161;-83
2021/12/01 06:37:34;;;;;;;197.02;182.52;;;8.70;99.90;;;;;;5076782;28;20174;-83
2021/12/01 06:40:00;;;;;;;161.90;149.00;;;8.70;99.90;;;;;;5076746;28;20184;-83
2021/12/01 06:42:25;;;;;;;111.67;100.27;;;8.70;99.90;;;;;;5077064;28;20164;-83
2021/12/01 06:44:51;;;;;;;140.57;128.47;;;8.80;99.90;;;;;;5077745;28;20670;-83
2021/12/01 06:47:17;;;;;;;188.90;174.57;;;8.80;99.90;;;;;;5077246;28;20168;-83
2021/12/01 06:49:45;;;;;;;158.90;146.35;;;8.80;99.90;;;;;;5076245;28;20593;-83
2021/12/01 06:52:13;;;;;;;196.35;181.85;;;8.80;99.90;;;;;;5076133;28;20156;-83
2021/12/01 06:54:39;;;;;;;209.40;195.07;;;8.80;99.90;;;;;;5077445;28;20219;-83
2021/12/01 06:57:05;;;;;;;211.60;196.73;;;8.80;99.90;;;;;;5076940;28;20185;-83
2021/12/01 06:59:31;;;;;;;187.63;173.93;;;8.80;99.90;;;;;;5075746;28;20187;-83
2021/12/01 07:01:56;;;;;;;214.87;200.20;;;8.80;99.90;;;;;;5075985;28;20189;-83
2021/12/01 07:04:25;;;;;;;202.53;188.27;;;8.80;99.90;;;;;;5076682;28;20400;-83
2021/12/01 07:06:50;;;;;;;188.02;173.80;;;8.80;99.90;;;;;;5077049;28;20535;-84
2021/12/01 07:09:20;;;;;;;171.37;157.50;;;8.80;99.90;;;;;;5075277;28;20183;-83
2021/12/01 07:11:47;;;;;;;193.68;179.35;;;8.80;99.90;;;;;;5075568;28;20184;-83
2021/12/01 07:14:16;;;;;;;139.82;127.28;;;8.80;99.90;;;;;;5077532;28;20681;-83
2021/12/01 07:16:42;;;;;;;172.02;158.63;;;8.80;99.90;;;;;;5076083;28;20262;-84
2021/12/01 07:19:07;;;;;;;240.43;223.90;;;8.90;99.90;;;;;;5076963;28;20186;-83
2021/12/01 07:21:35;;;;;;;167.30;154.13;;;8.90;99.90;;;;;;5075407;28;20168;-83
2021/12/01 07:24:02;;;;;;;106.70;95.32;;;8.90;99.90;;;;;;5077464;28;20406;-83
2021/12/01 07:26:28;;;;;;;96.78;83.65;;;8.90;99.90;;;;;;5076945;28;20243;-84
2021/12/01 07:28:53;;;;;;;105.60;89.97;;;9.00;99.90;;;;;;5077338;28;20280;-83
2021/12/01 07:31:19;;;;;;;87.83;56.57;;;8.90;99.90;;;;;;5077349;28;20683;-83
2021/12/01 07:33:45;;;;;;;86.33;54.33;;;9.00;99.90;;;;;;5075406;28;20167;-84
2021/12/01 07:36:10;;;;;;;102.23;83.93;;;9.00;99.90;;;;;;5076713;28;20177;-83
2021/12/01 07:38:39;;;;;;;93.53;68.30;;;9.00;99.90;;;;;;5076857;28;20166;-83
2021/12/01 07:41:04;;;;;;;171.73;157.23;;;9.10;99.90;;;;;;5076682;28;20239;-83
2021/12/01 07:43:30;;;;;;;136.27;124.10;;;9.00;99.90;;;;;;5077088;28;20187;-83
2021/12/01 07:45:56;;;;;;;79.77;37.50;;;9.10;99.90;;;;;;5076340;28;20217;-84
2021/12/01 07:48:21;;;;;;;86.60;56.20;;;9.10;99.90;;;;;;5076003;28;20174;-84
2021/12/01 07:50:47;;;;;;;98.70;72.70;;;9.10;99.90;;;;;;5075977;28;20200;-84
2021/12/01 07:53:13;;;;;;;80.13;38.93;;;9.20;99.90;;;;;;5076831;28;20247;-84
2021/12/01 07:55:41;;;;;;;74.90;27.30;;;9.20;99.90;;;;;;5076547;28;20632;-83
2021/12/01 07:58:07;;;;;;;76.60;29.65;;;9.20;99.90;;;;;;5171260;22;20245;-85
2021/12/01 08:00:36;;;;;;;76.00;24.75;;;9.20;99.90;;;;;;5096841;28;20190;-85
2021/12/01 08:03:03;;;;;;;86.97;49.03;;;9.20;99.90;;;;;;5098313;28;20167;-85
2021/12/01 08:05:31;;;;;;;76.35;27.55;;;9.20;99.90;;;;;;5096548;28;20212;-85
2021/12/01 08:07:56;;;;;;;73.07;20.33;;;9.20;99.90;;;;;;5096697;28;20224;-86
2021/12/01 08:10:25;;;;;;;79.00;35.07;;;9.20;99.90;;;;;;5097732;28;20198;-85
2021/12/01 08:13:00;;;;;;;100.07;79.40;;;9.20;99.90;;;;;;5099032;28;20402;-85
2021/12/01 08:15:30;;;;;;;82.35;45.53;;;9.10;99.90;;;;;;5096485;28;20155;-85
2021/12/01 08:17:56;;;;;;;148.35;135.02;;;9.20;99.90;;;;;;5097471;28;20159;-84
2021/12/01 08:20:24;;;;;;;142.93;130.47;;;9.20;99.90;;;;;;5097478;28;20729;-85
2021/12/01 08:23:02;;;;;;;81.40;39.38;;;9.20;99.90;;;;;;5097104;28;20397;-84
2021/12/01 08:25:40;;;;;;;79.18;35.63;;;9.20;99.90;;;;;;5098040;28;20140;-85
2021/12/01 08:28:06;;;;;;;74.63;24.02;;;9.30;99.90;;;;;;5097134;28;20657;-85
2021/12/01 08:30:40;;;;;;;74.87;25.43;;;9.30;99.90;;;;;;5097175;28;20195;-84
2021/12/01 08:33:09;;;;;;;73.90;23.48;;;9.30;99.90;;;;;;5098171;28;20167;-85
2021/12/01 08:35:35;;;;;;;77.82;29.08;;;9.40;99.90;;;;;;5098809;28;20166;-85
2021/12/01 08:38:01;;;;;;;92.07;54.27;;;9.40;99.90;;;;;;5096932;28;20163;-85
2021/12/01 08:40:29;;;;;;;74.10;23.47;;;9.30;99.90;;;;;;5098440;28;20187;-85
2021/12/01 08:42:55;;;;;;;74.75;23.52;;;9.40;99.90;;;;;;5097406;28;20164;-85
2021/12/01 08:45:21;;;;;;;74.10;20.48;;;9.50;99.90;;;;;;5098881;28;20227;-84
2021/12/01 08:47:50;;;;;;;77.37;34.17;;;9.50;99.90;;;;;;5097796;28;20207;-84
2021/12/01 08:50:16;;;;;;;73.47;21.23;;;9.60;99.90;;;;;;5098540;28;20449;-85
2021/12/01 08:52:56;;;;;;;76.97;30.70;;;9.50;99.90;;;;;;5097224;28;20167;-85
2021/12/01 08:55:24;;;;;;;72.13;19.02;;;9.60;99.90;;;;;;5098790;28;20147;-85
2021/12/01 08:58:02;;;;;;;73.32;21.85;;;9.60;99.90;;;;;;5097413;28;20196;-85
2021/12/01 09:00:57;;;;;;;77.20;30.90;;;9.60;99.90;;;;;;5098742;28;20210;-85
2021/12/01 09:03:25;;;;;;;74.72;26.00;;;9.60;99.90;;;;;;5099149;28;20538;-85
2021/12/01 09:06:03;;;;;;;72.93;21.27;;;9.50;99.90;;;;;;5101858;28;20191;-85
2021/12/01 09:08:33;;;;;;;72.80;19.33;;;9.60;99.90;;;;;;5101536;28;20159;-85
2021/12/01 09:11:08;;;;;;;77.70;33.92;;;9.60;99.90;;;;;;5102350;28;20187;-86
2021/12/01 09:13:35;;;;;;;73.75;22.70;;;9.60;99.90;;;;;;5102524;28;20234;-86
2021/12/01 09:16:03;;;;;;;74.30;22.88;;;9.60;99.90;;;;;;5102594;28;20189;-85
2021/12/01 09:18:30;;;;;;;73.85;22.40;;;9.70;99.90;;;;;;5100642;28;20168;-85
2021/12/01 09:21:00;;;;;;;72.40;19.40;;;9.70;99.90;;;;;;5101290;28;20193;-85
2021/12/01 09:23:26;;;;;;;78.00;34.33;;;9.80;99.90;;;;;;5101457;28;20175;-85
2021/12/01 09:26:01;;;;;;;74.47;22.17;;;9.70;99.90;;;;;;5101475;28;20248;-85
2021/12/01 09:34:17;;;;;;;95.95;73.55;;;9.80;99.90;;;;;;5062861;28;20176;-85
2021/12/01 09:36:45;;;;;;;122.45;110.32;;;9.60;99.90;;;;;;5100606;28;20523;-85
2021/12/01 09:39:14;;;;;;;138.82;125.97;;;9.70;99.90;;;;;;5097489;28;20198;-85
2021/12/01 09:41:51;;;;;;;225.68;210.02;;;9.70;99.90;;;;;;5100021;28;20167;-84
2021/12/01 09:44:40;;;;;;;196.25;181.75;;;9.60;99.90;;;;;;5099452;28;20163;-86
2021/12/01 09:47:06;;;;;;;154.15;141.57;;;9.60;99.90;;;;;;5099598;28;20186;-85
2021/12/01 09:49:33;;;;;;;188.48;174.63;;;9.60;99.90;;;;;;5100859;28;20226;-83
2021/12/01 09:52:01;;;;;;;165.77;153.00;;;9.60;99.90;;;;;;5098616;28;20281;-82
2021/12/01 09:54:29;;;;;;;134.98;123.15;;;9.70;99.90;;;;;;5094973;28;20189;-82
2021/12/01 09:56:55;;;;;;;219.07;203.45;;;9.70;99.90;;;;;;5094704;28;20171;-84
2021/12/01 09:59:21;;;;;;;214.57;198.90;;;9.70;99.90;;;;;;5096260;28;20186;-83
2021/12/01 10:01:47;;;;;;;142.17;130.10;;;9.60;99.90;;;;;;5094966;28;20163;-83
2021/12/01 10:04:15;;;;;;;129.93;118.27;;;9.70;99.90;;;;;;5095462;28;20182;-84
2021/12/01 10:06:44;;;;;;;161.13;147.90;;;9.70;99.90;;;;;;5096390;28;20784;-85
2021/12/01 10:09:21;;;;;;;107.90;96.78;;;9.70;99.90;;;;;;5098956;28;20190;-85
2021/12/01 10:12:08;;;;;;;117.90;106.60;;;9.80;99.90;;;;;;5099732;28;20695;-84
2021/12/01 10:14:34;;;;;;;212.90;198.23;;;9.80;99.90;;;;;;5100002;28;20151;-85
2021/12/01 10:17:10;;;;;;;209.40;195.03;;;10.00;99.90;;;;;;5101137;28;20246;-85
2021/12/01 10:19:44;;;;;;;179.02;165.15;;;9.90;99.90;;;;;;5100074;28;20282;-85
2021/12/01 10:22:11;;;;;;;183.48;169.20;;;10.00;99.90;;;;;;5101164;28;20162;-85
2021/12/01 10:24:39;;;;;;;95.25;77.68;;;10.00;99.90;;;;;;5100139;28;20258;-85
2021/12/01 10:28:05;;;;;;;168.85;155.60;;;10.10;99.90;;;;;;5101556;28;20166;-85
2021/12/01 10:31:17;;;;;;;160.07;146.85;;;10.00;99.90;;;;;;5098303;28;20234;-86
2021/12/01 10:33:52;;;;;;;92.55;72.18;;;10.00;99.90;;;;;;5079012;28;20171;-85
2021/12/01 10:37:18;;;;;;;;;;;;;;;;;;;;;
2021/12/01 10:40:23;;;;;;;84.55;45.97;;;10.00;99.90;;;;;;5100769;28;20275;-85
2021/12/01 10:46:15;;;;;;;104.97;89.65;;;10.20;99.90;;;;;;5058369;28;20195;-85
2021/12/01 10:49:51;;;;;;;;;;;;;;;;;;;;;
2021/12/01 10:56:16;;;;;;;93.53;72.07;;;10.30;99.90;;;;;;5088460;28;20175;-86
2021/12/01 11:05:28;;;;;;;80.65;38.85;;;10.40;99.90;;;;;;5062535;27;20184;-86
2021/12/01 11:11:10;;;;;;;74.80;21.40;;;10.40;99.90;;;;;;5134079;22;20705;-85
2021/12/01 11:17:44;;;;;;;77.63;27.77;;;10.40;99.90;;;;;;5048370;28;20179;-86
2021/12/01 11:21:05;;;;;;;79.63;29.40;;;10.40;99.90;;;;;;5133189;27;20178;-85
2021/12/01 11:24:05;;;;;;;;;;;;;;;;;;;;;
2021/12/01 11:26:56;;;;;;;75.15;24.20;;;10.40;99.90;;;;;;5088624;27;20261;-86
2021/12/01 11:29:48;;;;;;;;;;;;;;;;;;;;;
2021/12/01 11:32:17;;;;;;;77.38;25.75;;;10.40;99.90;;;;;;5138347;27;20736;-85
2021/12/01 11:38:16;;;;;;;78.13;27.60;;;10.40;99.90;;;;;;5139305;27;20145;-85
2021/12/01 11:40:53;;;;;;;81.07;35.25;;;10.30;99.90;;;;;;5104651;27;20284;-85
2021/12/01 11:57:42;;;;;;;187.38;173.07;;;10.40;99.90;;;;;;5007964;28;20173;-85
2021/12/01 12:00:17;;;;;;;194.77;180.60;;;10.30;99.90;;;;;;5122034;22;20293;-85
2021/12/01 12:14:23;;;;;;;135.57;123.45;;;10.30;99.90;;;;;;5085873;28;20171;-86
2021/12/01 12:17:25;;;;;;;120.07;108.78;;;10.20;99.90;;;;;;5118622;28;20147;-85
2021/12/01 12:23:49;;;;;;;120.28;108.38;;;10.30;99.90;;;;;;5035747;28;20203;-86
2021/12/01 12:26:59;;;;;;;;;;;;;;;;;;;;;
2021/12/01 12:29:52;;;;;;;159.43;145.85;;;10.20;99.90;;;;;;5117158;28;20189;-85
2021/12/01 12:36:13;;;;;;;136.77;124.70;;;10.10;99.90;;;;;;5035912;28;20169;-85
2021/12/01 12:39:28;;;;;;;165.20;151.75;;;10.00;99.90;;;;;;5121105;28;20154;-86
2021/12/01 12:42:36;;;;;;;164.57;151.15;;;10.00;99.90;;;;;;5122312;28;20162;-85
2021/12/01 12:45:56;;;;;;;149.73;137.15;;;9.90;99.90;;;;;;5043055;28;20177;-84
2021/12/01 12:49:07;;;;;;;168.98;155.35;;;9.90;99.90;;;;;;5088143;28;20514;-85
2021/12/01 12:55:31;;;;;;;111.07;99.90;;;9.80;99.90;;;;;;5031268;28;20180;-85
2021/12/01 12:58:34;;;;;;;130.80;118.85;;;9.80;99.90;;;;;;5040479;28;20161;-85
2021/12/01 13:01:51;;;;;;;;;;;;;;;;;;;;;
2021/12/01 13:05:17;;;;;;;122.18;110.53;;;9.70;99.90;;;;;;5035802;28;20193;-84
2021/12/01 13:11:48;;;;;;;;;;;;;;;;;;;;;
2021/12/01 13:15:11;;;;;;;145.43;132.80;;;9.60;99.90;;;;;;5100516;28;20277;-86
2021/12/01 13:18:21;;;;;;;101.85;90.35;;;9.60;99.90;;;;;;5021334;28;20568;-85
2021/12/01 13:24:26;;;;;;;185.73;171.35;;;9.60;99.90;;;;;;5059007;28;20188;-85
2021/12/01 13:30:22;;;;;;;181.50;167.25;;;9.50;99.90;;;;;;5058541;28;20290;-86
2021/12/01 13:33:23;;;;;;;;;;;;;;;;;;;;;
2021/12/01 13:36:28;;;;;;;152.63;139.63;;;9.40;99.90;;;;;;5059774;28;20247;-85
2021/12/01 13:39:20;;;;;;;150.52;138.02;;;9.50;99.90;;;;;;5101013;28;20201;-84
2021/12/01 13:42:44;;;;;;;221.35;205.82;;;9.50;99.90;;;;;;5121906;28;20219;-85
2021/12/01 13:45:26;;;;;;;;;;;;;;;;;;;;;
2021/12/01 13:48:24;;;;;;;114.25;102.70;;;9.50;99.90;;;;;;5039234;28;20241;-86
2021/12/01 13:51:49;;;;;;;112.78;100.38;;;9.50;99.90;;;;;;5034675;28;20731;-85
2021/12/01 13:55:22;;;;;;;;;;;;;;;;;;;;;
2021/12/01 14:01:32;;;;;;;75.40;24.08;;;9.50;99.90;;;;;;5169161;22;20563;-85
2021/12/01 14:04:04;;;;;;;75.38;25.85;;;9.40;99.90;;;;;;5098906;28;20238;-85
2021/12/01 14:06:35;;;;;;;89.45;43.13;;;9.40;99.90;;;;;;5100426;28;20155;-85
2021/12/01 14:09:08;;;;;;;81.80;31.90;;;9.40;99.90;;;;;;5081292;28;20210;-85
2021/12/01 14:11:53;;;;;;;79.68;39.25;;;9.30;99.90;;;;;;5099301;28;20304;-85
2021/12/01 14:14:30;;;;;;;83.72;45.30;;;9.40;99.90;;;;;;5099031;28;20167;-85
2021/12/01 14:17:00;;;;;;;79.40;36.78;;;9.40;99.90;;;;;;5096740;28;20187;-85
2021/12/01 14:20:00;;;;;;;83.53;44.20;;;9.30;99.90;;;;;;5078931;28;20190;-85
2021/12/01 14:22:26;;;;;;;82.70;42.60;;;9.30;99.90;;;;;;5096686;28;20144;-85
2021/12/01 14:24:56;;;;;;;78.68;35.78;;;9.40;99.90;;;;;;5097313;28;20166;-85
2021/12/01 14:27:30;;;;;;;83.25;45.33;;;9.40;99.90;;;;;;5097271;28;20155;-85